Terminal Aerodrome Forecast
Issued by NWS Sterling, VA

Home | Current Version | Previous Version | Text Only | Print | Product List | Glossary On
Versions: 1 2 3 4 5 6 7 8 9 10 11 12 13 14 15 16 17 18 19 20 21 22 23 24 25
000
FTUS41 KLWX 131700 AAA
TAFDCA
TAF AMD
KDCA 131754Z 1318/1418 18011KT P6SM SCT050 BKN100
     FM140000 20013KT P6SM VCTS SCT050CB BKN090
     FM140800 22007KT P6SM BKN060=

USA.gov is the U.S. government's official web portal to all federal, state and local government web resources and services.